Time;durP1;ratioP1;P1;durP2;ratioP2;P2;SDS_P1;SDS_P2;PMS_P1;PMS_P2;Temp;Humidity;BMP_temperature;BMP_pressure;BME280_temperature;BME280_humidity;BME280_pressure;Samples;Min_cycle;Max_cycle;Signal;HPM_P1;HPM_P2
2022/11/26 00:04:48;;;;;;;9.38;4.50;;;;;;;9.21;100.00;101381.72;10356732;28;99059;-73
2022/11/26 00:09:52;;;;;;;6.68;3.97;;;;;;;9.14;100.00;101374.81;10356827;28;97308;-73
2022/11/26 00:14:56;;;;;;;8.13;4.25;;;;;;;9.17;100.00;101366.97;10347425;28;99267;-73
2022/11/26 00:20:00;;;;;;;6.88;3.70;;;;;;;9.10;100.00;101372.22;10354889;28;96960;-73
2022/11/26 00:25:03;;;;;;;6.53;3.75;;;;;;;9.04;100.00;101368.81;10349141;28;96882;-73
2022/11/26 00:30:14;;;;;;;6.72;3.40;;;;;;;8.92;100.00;101365.41;10359621;28;97448;-73
2022/11/26 00:35:18;;;;;;;8.65;4.30;;;;;;;8.86;100.00;101357.66;10375085;28;96904;-72
2022/11/26 00:40:24;;;;;;;7.20;3.83;;;;;;;8.85;100.00;101360.28;10383624;28;96877;-73
2022/11/26 00:45:31;;;;;;;8.05;3.80;;;;;;;8.87;100.00;101358.50;10353214;28;97110;-72
2022/11/26 00:50:40;;;;;;;9.25;4.25;;;;;;;8.87;100.00;101363.72;10371019;27;96806;-72
2022/11/26 00:55:46;;;;;;;6.70;3.30;;;;;;;8.87;100.00;101363.72;10357042;28;96886;-71
2022/11/26 01:00:51;;;;;;;7.82;3.60;;;;;;;8.89;100.00;101372.41;10366966;28;99131;-72
2022/11/26 01:05:55;;;;;;;;;;;;;;;8.87;100.00;101368.94;10365334;28;98959;-72
2022/11/26 01:10:58;;;;;;;5.57;3.10;;;;;;;8.85;100.00;101376.78;10361140;28;99000;-72
2022/11/26 01:16:12;;;;;;;7.35;2.97;;;;;;;8.71;100.00;101389.91;10367151;28;97347;-72
2022/11/26 01:21:16;;;;;;;6.78;3.03;;;;;;;8.65;100.00;101384.72;10375667;28;97100;-71
2022/11/26 01:26:23;;;;;;;7.83;2.73;;;;;;;8.72;100.00;101389.03;10371694;28;96834;-72
2022/11/26 01:31:29;;;;;;;6.45;2.63;;;;;;;8.84;100.00;101389.81;10373684;28;98489;-72
2022/11/26 01:36:35;;;;;;;7.57;2.80;;;;;;;8.91;100.00;101396.72;10360974;28;97220;-72
2022/11/26 01:41:45;;;;;;;9.10;3.65;;;;;;;8.95;100.00;101408.91;10354202;28;98459;-72
2022/11/26 01:46:52;;;;;;;6.53;2.70;;;;;;;8.91;100.00;101401.94;10360165;28;96862;-72
2022/11/26 01:52:03;;;;;;;8.48;3.70;;;;;;;8.96;100.00;101405.41;10370825;28;96890;-72
2022/11/26 01:57:10;;;;;;;7.80;3.03;;;;;;;9.04;100.00;101401.00;10365144;28;98810;-72
2022/11/26 02:02:15;;;;;;;7.13;3.08;;;;;;;9.05;100.00;101400.09;10364911;28;97698;-71
2022/11/26 02:07:18;;;;;;;5.70;2.95;;;;;;;9.21;100.00;101399.97;10371125;28;97675;-72
2022/11/26 02:12:22;;;;;;;6.13;3.13;;;;;;;9.24;100.00;101382.56;10366442;28;96821;-72
2022/11/26 02:17:32;;;;;;;6.30;3.40;;;;;;;9.32;100.00;101398.16;10367270;28;97152;-72
2022/11/26 02:23:12;;;;;;;8.77;3.42;;;;;;;9.34;100.00;101403.38;10354899;28;96784;-72
2022/11/26 02:28:51;;;;;;;6.90;3.25;;;;;;;9.46;100.00;101393.72;10363874;28;98520;-72
2022/11/26 02:34:05;;;;;;;9.88;3.58;;;;;;;9.48;100.00;101389.34;10389447;28;97022;-72
2022/11/26 02:39:13;;;;;;;6.90;3.45;;;;;;;9.37;100.00;101370.28;10365187;28;96768;-72
2022/11/26 02:44:21;;;;;;;12.00;3.58;;;;;;;9.26;100.00;101372.09;10355729;28;96886;-72
2022/11/26 02:49:27;;;;;;;8.88;3.22;;;;;;;9.23;100.00;101375.63;10381428;27;100189;-72
2022/11/26 02:54:33;;;;;;;6.72;2.80;;;;;;;9.11;100.00;101380.94;10379558;28;96966;-72
2022/11/26 02:59:38;;;;;;;6.43;2.78;;;;;;;8.86;100.00;101391.56;10374746;28;96727;-72
2022/11/26 03:04:47;;;;;;;8.00;2.92;;;;;;;8.69;100.00;101386.44;10372556;28;96851;-72
2022/11/26 03:09:53;;;;;;;6.50;2.88;;;;;;;8.75;100.00;101379.47;10371249;28;99067;-72
2022/11/26 03:14:56;;;;;;;8.82;3.00;;;;;;;8.80;100.00;101362.91;10392270;28;98729;-72
2022/11/26 03:20:02;;;;;;;9.93;3.25;;;;;;;8.90;100.00;101363.72;10365216;28;96757;-72
2022/11/26 03:25:07;;;;;;;7.00;3.38;;;;;;;9.01;100.00;101366.25;10371044;28;98324;-72
2022/11/26 03:30:11;;;;;;;7.82;3.00;;;;;;;9.06;100.00;101364.47;10364775;28;98069;-72
2022/11/26 03:35:15;;;;;;;7.82;2.95;;;;;;;9.03;100.00;101373.16;10364124;28;98881;-72
2022/11/26 03:40:19;;;;;;;5.88;2.88;;;;;;;9.00;100.00;101382.75;10359896;28;96842;-72
2022/11/26 03:45:22;;;;;;;7.47;3.20;;;;;;;8.92;100.00;101375.00;10363050;28;96913;-73
2022/11/26 03:50:27;;;;;;;7.93;3.22;;;;;;;8.88;100.00;101375.88;10368826;28;97591;-71
2022/11/26 03:55:30;;;;;;;7.53;2.80;;;;;;;8.66;100.00;101378.63;10357754;28;96792;-72
2022/11/26 04:00:33;;;;;;;6.32;3.00;;;;;;;8.47;100.00;101380.47;10369690;28;97376;-71
2022/11/26 04:05:38;;;;;;;4.38;2.47;;;;;;;8.37;100.00;101377.94;10373197;28;97345;-70
2022/11/26 04:10:41;;;;;;;9.25;3.20;;;;;;;8.29;100.00;101380.56;10353372;28;97108;-71
2022/11/26 04:15:44;;;;;;;7.20;3.13;;;;;;;8.19;100.00;101363.22;10358214;28;97144;-71
2022/11/26 04:20:49;;;;;;;6.40;3.10;;;;;;;8.25;100.00;101363.22;10368685;27;97385;-71
2022/11/26 04:25:55;;;;;;;9.48;3.35;;;;;;;8.32;100.00;101373.59;10365575;28;96992;-71
2022/11/26 04:30:58;;;;;;;7.10;2.90;;;;;;;8.38;100.00;101379.66;10358307;28;97103;-71
2022/11/26 04:36:03;;;;;;;7.22;3.08;;;;;;;8.45;100.00;101365.75;10377174;28;96804;-71
2022/11/26 04:41:06;;;;;;;7.18;2.90;;;;;;;8.53;100.00;101374.34;10400724;28;97026;-71
2022/11/26 04:46:09;;;;;;;7.85;2.92;;;;;;;8.40;100.00;101367.50;10364618;28;99330;-70
2022/11/26 04:51:14;;;;;;;6.90;2.88;;;;;;;8.35;100.00;101368.38;10394019;28;97494;-71
2022/11/26 04:56:17;;;;;;;7.93;3.00;;;;;;;8.19;100.00;101358.91;10366781;28;96814;-71
2022/11/26 05:01:20;;;;;;;5.72;2.90;;;;;;;8.23;100.00;101355.41;10380137;28;96874;-71
2022/11/26 05:06:25;;;;;;;7.32;2.65;;;;;;;8.31;100.00;101340.59;10411461;28;97601;-71
2022/11/26 05:11:28;;;;;;;6.85;2.80;;;;;;;8.44;100.00;101332.72;10384922;28;96924;-71
2022/11/26 05:16:32;;;;;;;6.30;2.65;;;;;;;8.44;100.00;101333.56;10367185;28;98028;-71
2022/11/26 05:21:36;;;;;;;5.13;2.70;;;;;;;8.49;100.00;101325.75;10361539;28;96924;-71
2022/11/26 05:26:40;;;;;;;5.10;2.80;;;;;;;8.53;100.00;101325.72;10376679;28;97346;-71
2022/11/26 05:31:43;;;;;;;6.65;2.55;;;;;;;8.57;100.00;101316.13;10364162;28;97461;-71
2022/11/26 05:36:48;;;;;;;7.55;2.85;;;;;;;8.58;100.00;101322.19;10375913;28;96877;-71
2022/11/26 05:41:51;;;;;;;7.75;2.60;;;;;;;8.56;100.00;101322.22;10388247;28;96815;-71
2022/11/26 05:46:54;;;;;;;5.43;2.33;;;;;;;8.57;100.00;101323.94;10384386;28;96883;-71
2022/11/26 05:51:59;;;;;;;7.70;2.70;;;;;;;8.58;100.00;101330.88;10372277;28;98679;-71
2022/11/26 05:57:03;;;;;;;8.02;2.83;;;;;;;8.57;100.00;101344.81;10374923;28;98686;-71
2022/11/26 06:02:06;;;;;;;6.85;2.70;;;;;;;8.59;100.00;101358.69;10368008;28;96761;-71
2022/11/26 06:07:11;;;;;;;6.75;2.60;;;;;;;8.60;100.00;101355.19;10376638;28;98702;-71
2022/11/26 06:12:14;;;;;;;7.60;2.55;;;;;;;8.54;100.00;101365.69;10369986;28;96793;-71
2022/11/26 06:17:18;;;;;;;6.72;2.72;;;;;;;8.45;100.00;101376.16;10374280;28;96976;-71
2022/11/26 06:22:22;;;;;;;6.15;2.28;;;;;;;8.38;100.00;101370.13;10368182;28;96726;-71
2022/11/26 06:27:25;;;;;;;6.88;2.22;;;;;;;8.31;100.00;101384.91;10369180;28;97155;-71
2022/11/26 06:32:29;;;;;;;6.50;3.10;;;;;;;8.14;100.00;101382.38;10376511;28;96841;-71
2022/11/26 06:37:34;;;;;;;10.13;3.10;;;;;;;7.93;100.00;101396.34;10396804;28;97777;-71
2022/11/26 06:42:37;;;;;;;6.85;2.90;;;;;;;7.98;100.00;101391.97;10372761;28;97673;-71
2022/11/26 06:47:40;;;;;;;6.10;2.45;;;;;;;7.80;100.00;101384.22;10380650;28;96877;-71
2022/11/26 06:52:45;;;;;;;5.88;2.30;;;;;;;7.89;100.00;101385.91;10393719;28;97173;-71
2022/11/26 06:57:50;;;;;;;5.47;2.53;;;;;;;8.04;100.00;101388.47;10385542;28;98484;-71
2022/11/26 07:02:53;;;;;;;7.25;3.30;;;;;;;8.13;100.00;101391.06;10370864;28;97137;-71
2022/11/26 07:07:58;;;;;;;4.80;2.67;;;;;;;8.20;100.00;101402.31;10373863;28;97320;-71
2022/11/26 07:13:01;;;;;;;5.97;2.55;;;;;;;8.20;100.00;101404.91;10359239;28;96906;-71
2022/11/26 07:18:05;;;;;;;4.45;2.20;;;;;;;8.16;100.00;101419.69;10373580;28;97131;-71
2022/11/26 07:23:09;;;;;;;6.22;2.33;;;;;;;8.13;100.00;101417.13;10363549;28;98637;-71
2022/11/26 07:28:13;;;;;;;5.45;2.67;;;;;;;8.10;100.00;101434.47;10391882;28;96854;-72
2022/11/26 07:33:16;;;;;;;5.13;2.40;;;;;;;8.20;100.00;101441.41;10352217;28;97707;-70
2022/11/26 07:38:21;;;;;;;4.20;2.00;;;;;;;8.30;100.00;101443.09;10363613;28;97033;-70
2022/11/26 07:43:24;;;;;;;6.30;2.40;;;;;;;8.38;100.00;101442.19;10365088;28;98834;-71
2022/11/26 07:48:29;;;;;;;4.80;2.40;;;;;;;8.38;100.00;101442.19;10370389;28;96761;-71
2022/11/26 07:53:35;;;;;;;6.03;2.08;;;;;;;8.32;100.00;101441.34;10364828;28;97493;-72
2022/11/26 07:58:38;;;;;;;6.38;2.28;;;;;;;8.42;100.00;101425.69;10373327;28;96715;-70
2022/11/26 08:03:44;;;;;;;6.53;2.55;;;;;;;8.42;100.00;101420.47;10354051;28;98738;-72
2022/11/26 08:08:50;;;;;;;7.93;2.40;;;;;;;8.44;100.00;101410.91;10361315;28;99093;-73
2022/11/26 08:13:53;;;;;;;;;;;;;;;8.42;100.00;101423.94;10357706;28;97348;-72
2022/11/26 08:18:58;;;;;;;5.40;1.90;;;;;;;8.48;100.00;101430.88;10372232;28;96895;-73
2022/11/26 08:24:03;;;;;;;;;;;;;;;8.42;100.00;101439.59;10355892;28;96940;-72
2022/11/26 08:29:07;;;;;;;6.07;2.23;;;;;;;8.45;100.00;101417.88;10361492;28;98096;-74
2022/11/26 09:56:25;;;;;;;5.30;1.95;;;;;;;9.89;100.00;101420.28;10319031;28;98520;-71
2022/11/26 10:01:30;;;;;;;5.40;2.20;;;;;;;9.92;100.00;101399.34;10279247;28;97365;-71
2022/11/26 10:06:39;;;;;;;;;;;;;;;9.89;100.00;101408.13;10278858;28;96906;-71
2022/11/26 10:11:53;;;;;;;4.30;2.17;;;;;;;9.96;100.00;101420.22;10281589;28;98666;-72
2022/11/26 10:17:13;;;;;;;7.82;2.60;;;;;;;10.04;100.00;101383.53;10277787;28;97633;-74
2022/11/26 10:22:23;;;;;;;2.97;1.83;;;;;;;10.10;100.00;101404.38;10268996;28;98686;-73
2022/11/26 10:27:32;;;;;;;6.18;2.25;;;;;;;10.12;100.00;101373.88;10273113;28;98356;-74
2022/11/26 10:32:39;;;;;;;5.60;2.58;;;;;;;10.13;100.00;101370.38;10278486;28;96996;-73
2022/11/26 10:37:42;;;;;;;7.18;3.30;;;;;;;10.15;100.00;101345.09;10276558;28;100215;-73
2022/11/26 10:42:56;;;;;;;4.50;2.30;;;;;;;10.18;100.00;101341.56;10279294;28;97551;-72
2022/11/26 10:48:15;;;;;;;7.40;2.30;;;;;;;10.26;100.00;101328.41;10278483;28;100109;-73
2022/11/26 10:53:22;;;;;;;4.88;2.47;;;;;;;10.37;100.00;101340.44;10266845;28;96998;-73
2022/11/26 10:58:30;;;;;;;4.50;2.35;;;;;;;10.46;100.00;101318.53;10254250;28;97311;-73
2022/11/26 11:03:38;;;;;;;4.63;1.90;;;;;;;10.48;100.00;101316.75;10250503;28;98894;-73
2022/11/26 11:09:21;;;;;;;6.80;1.80;;;;;;;10.59;100.00;101319.22;10253686;28;97025;-74
2022/11/26 11:14:29;;;;;;;4.47;1.95;;;;;;;10.76;100.00;101316.34;10250327;28;97653;-74
2022/11/26 11:19:33;;;;;;;3.90;1.67;;;;;;;10.88;100.00;101310.91;10252839;28;97500;-73
2022/11/26 11:24:36;;;;;;;4.83;1.60;;;;;;;10.92;100.00;101307.34;10253418;28;98848;-73
2022/11/26 11:29:41;;;;;;;6.30;1.60;;;;;;;10.94;100.00;101295.09;10254309;28;97665;-73
2022/11/26 11:34:46;;;;;;;2.22;1.50;;;;;;;11.02;100.00;101307.19;10248025;28;98190;-73
2022/11/26 11:40:04;;;;;;;4.32;1.85;;;;;;;11.08;100.00;101283.53;10253805;28;96851;-72
2022/11/26 11:45:22;;;;;;;5.25;1.60;;;;;;;11.13;100.00;101284.31;10248432;28;97321;-72
2022/11/26 11:50:32;;;;;;;3.10;1.48;;;;;;;11.30;100.00;101268.31;10246699;28;98456;-73
2022/11/26 11:55:53;;;;;;;6.53;2.10;;;;;;;11.39;100.00;101264.69;10248842;28;98120;-73
2022/11/26 12:01:14;;;;;;;4.43;2.00;;;;;;;11.47;100.00;101263.63;10249279;28;98795;-73
2022/11/26 12:06:27;;;;;;;6.40;2.00;;;;;;;11.56;100.00;101249.50;10245747;28;97772;-75
2022/11/26 12:11:44;;;;;;;4.22;2.17;;;;;;;11.65;100.00;101251.06;10245813;28;100715;-73
2022/11/26 12:16:53;;;;;;;5.80;2.35;;;;;;;11.70;100.00;101260.53;10248827;28;98791;-73
2022/11/26 12:22:03;;;;;;;6.45;2.13;;;;;;;11.62;100.00;101251.97;10249514;28;98584;-73
2022/11/26 12:27:17;;;;;;;5.95;2.10;;;;;;;11.62;100.00;101249.34;10249354;28;98831;-73
2022/11/26 12:32:28;;;;;;;3.20;1.97;;;;;;;11.86;100.00;101239.25;10249257;28;96878;-72
2022/11/26 12:37:32;;;;;;;4.20;2.10;;;;;;;11.95;100.00;101236.44;10247255;28;98740;-73
2022/11/26 12:42:44;;;;;;;5.53;2.03;;;;;;;11.97;100.00;101236.41;10244314;28;98816;-74
2022/11/26 12:47:55;;;;;;;3.58;2.35;;;;;;;11.90;100.00;101231.31;10239789;28;99047;-74
2022/11/26 12:53:04;;;;;;;7.22;2.22;;;;;;;11.91;100.00;101234.78;10245193;28;99276;-75
2022/11/26 12:58:12;;;;;;;6.72;2.78;;;;;;;11.94;100.00;101216.38;10247789;28;98854;-74
2022/11/26 13:03:21;;;;;;;5.88;2.58;;;;;;;11.90;100.00;101202.47;10243845;28;97669;-73
2022/11/26 13:08:38;;;;;;;7.35;3.28;;;;;;;12.01;100.00;101196.97;10241208;28;98545;-73
2022/11/26 13:13:48;;;;;;;6.75;2.63;;;;;;;12.26;100.00;101201.66;10241084;28;96889;-72
2022/11/26 13:18:56;;;;;;;5.65;2.53;;;;;;;12.42;100.00;101192.53;10248336;28;97380;-73
2022/11/26 13:24:18;;;;;;;5.70;2.70;;;;;;;12.98;100.00;101185.88;10250098;28;99236;-74
2022/11/26 13:29:51;;;;;;;4.18;2.10;;;;;;;13.73;100.00;101181.09;10250068;28;97044;-73
2022/11/26 13:35:15;;;;;;;4.57;2.00;;;;;;;14.22;100.00;101178.69;10250299;28;96873;-72
2022/11/26 13:40:54;;;;;;;5.93;2.13;;;;;;;13.51;100.00;101170.34;10244743;28;99656;-73
2022/11/26 13:46:08;;;;;;;4.85;2.40;;;;;;;13.29;100.00;101153.50;10246440;28;97669;-73
2022/11/26 13:51:19;;;;;;;4.75;2.25;;;;;;;13.13;100.00;101146.06;10251544;28;97314;-73
2022/11/26 13:56:26;;;;;;;6.20;2.63;;;;;;;13.10;100.00;101153.16;10246068;28;99051;-75
2022/11/26 14:01:35;;;;;;;3.65;2.28;;;;;;;12.95;100.00;101143.97;10243578;28;98741;-75
2022/11/26 14:07:19;;;;;;;6.15;2.50;;;;;;;12.93;100.00;101145.78;10244285;28;96986;-73
2022/11/26 14:12:24;;;;;;;6.80;2.53;;;;;;;13.27;100.00;101136.94;10248060;28;98972;-73
2022/11/26 14:17:27;;;;;;;5.93;2.70;;;;;;;13.58;100.00;101142.97;10248532;28;97261;-73
2022/11/26 14:22:39;;;;;;;6.80;3.33;;;;;;;14.65;100.00;101144.88;10252527;28;97669;-75
2022/11/26 14:27:49;;;;;;;6.30;3.13;;;;;;;15.49;100.00;101144.44;10249374;28;97538;-76
2022/11/26 14:33:08;;;;;;;5.03;3.00;;;;;;;16.46;100.00;101131.78;10257743;28;99086;-76
2022/11/26 14:38:25;;;;;;;7.35;3.05;;;;;;;16.74;100.00;101120.88;10243742;28;97265;-77
2022/11/26 14:43:29;;;;;;;5.72;3.25;;;;;;;16.81;100.00;101121.50;10249007;28;99481;-77
2022/11/26 14:48:35;;;;;;;6.55;3.38;;;;;;;16.81;100.00;101119.72;10250821;28;99325;-76
2022/11/26 14:53:49;;;;;;;6.30;3.13;;;;;;;16.63;100.00;101118.69;10253935;28;97566;-77
2022/11/26 14:58:54;;;;;;;4.63;2.80;;;;;;;16.60;100.00;101118.81;10252586;28;97470;-76
2022/11/26 15:04:00;;;;;;;5.50;3.20;;;;;;;16.82;100.00;101125.84;10245075;28;97781;-76
2022/11/26 15:09:16;;;;;;;5.75;2.80;;;;;;;16.86;100.00;101124.78;10240714;28;98896;-78
2022/11/26 15:14:26;;;;;;;5.05;3.20;;;;;;;16.73;100.00;101120.97;10241609;28;98970;-75
2022/11/26 15:19:33;;;;;;;5.55;3.53;;;;;;;16.52;100.00;101104.25;10244030;28;96937;-77
2022/11/26 15:24:38;;;;;;;6.70;4.45;;;;;;;16.07;100.00;101098.22;10246798;28;96871;-74
2022/11/26 15:29:49;;;;;;;6.75;3.72;;;;;;;15.42;100.00;101103.38;10252832;28;96933;-75
2022/11/26 15:34:54;;;;;;;6.57;3.67;;;;;;;15.26;100.00;101104.91;10258333;28;96975;-74
2022/11/26 15:40:10;;;;;;;7.43;4.13;;;;;;;15.22;100.00;101103.31;10255588;28;96812;-73
2022/11/26 15:45:16;;;;;;;6.47;4.07;;;;;;;15.19;100.00;101100.78;10222507;28;99230;-74
2022/11/26 15:50:26;;;;;;;6.22;3.47;;;;;;;15.13;100.00;101105.38;10256653;28;98940;-76
2022/11/26 15:55:35;;;;;;;6.45;3.95;;;;;;;14.97;100.00;101098.94;10249487;28;97143;-75
2022/11/26 16:00:40;;;;;;;6.15;4.05;;;;;;;14.92;100.00;101091.22;10258698;28;96936;-74
2022/11/26 16:05:54;;;;;;;8.55;4.32;;;;;;;14.67;100.00;101091.22;10257587;28;98318;-73
2022/11/26 16:11:06;;;;;;;7.55;4.40;;;;;;;13.97;100.00;101097.13;10255826;28;96953;-74
2022/11/26 16:16:16;;;;;;;10.05;5.88;;;;;;;13.51;100.00;101099.41;10257709;28;98397;-73
2022/11/26 16:21:23;;;;;;;10.38;6.00;;;;;;;13.24;100.00;101098.50;10254465;28;96948;-72
2022/11/26 16:26:29;;;;;;;11.10;6.10;;;;;;;13.02;100.00;101111.38;10254301;28;97619;-72
2022/11/26 16:31:32;;;;;;;7.63;4.80;;;;;;;12.85;100.00;101117.06;10256747;28;97295;-73
2022/11/26 16:36:35;;;;;;;9.48;5.07;;;;;;;12.74;100.00;101119.97;10257930;28;98466;-73
2022/11/26 16:41:40;;;;;;;6.68;3.63;;;;;;;12.57;100.00;101116.94;10258087;28;96757;-72
2022/11/26 16:46:51;;;;;;;7.30;4.03;;;;;;;12.50;100.00;101129.38;10254547;28;99072;-73
2022/11/26 16:51:54;;;;;;;7.30;4.00;;;;;;;12.47;100.00;101130.31;10256250;28;98330;-72
2022/11/26 16:56:58;;;;;;;7.30;3.50;;;;;;;12.42;100.00;101140.06;10253442;28;98510;-72
2022/11/26 17:02:01;;;;;;;6.25;3.67;;;;;;;12.37;100.00;101144.56;10253945;28;96855;-73
2022/11/26 17:07:05;;;;;;;7.60;4.30;;;;;;;12.27;100.00;101166.66;10254932;28;96957;-74
2022/11/26 17:12:17;;;;;;;9.73;5.07;;;;;;;12.18;100.00;101162.50;10257520;28;96740;-72
2022/11/26 17:17:24;;;;;;;8.32;4.40;;;;;;;12.09;100.00;101165.34;10249642;28;96989;-72
2022/11/26 17:22:27;;;;;;;10.10;4.70;;;;;;;12.00;100.00;101169.03;10256042;28;96801;-75
2022/11/26 17:27:32;;;;;;;11.20;5.35;;;;;;;11.91;100.00;101164.00;10252111;28;97397;-73
2022/11/26 17:32:35;;;;;;;;;;;;;;;11.79;100.00;101167.78;10256259;28;96775;-73
2022/11/26 17:37:39;;;;;;;11.52;8.35;;;;;;;11.73;100.00;101168.78;10251491;28;97634;-74
2022/11/26 18:02:13;;;;;;;16.75;10.95;;;;;;;11.81;100.00;101149.41;10279422;28;96586;-75
2022/11/26 18:07:18;;;;;;;;;;;;;;;11.64;100.00;101149.75;10269333;28;96880;-74
2022/11/26 18:12:23;;;;;;;18.97;11.27;;;;;;;11.54;100.00;101147.34;10281713;28;96794;-74
2022/11/26 18:17:29;;;;;;;16.95;11.60;;;;;;;11.49;100.00;101158.84;10255296;28;97579;-77
2022/11/26 18:22:32;;;;;;;20.10;13.45;;;;;;;11.46;100.00;101161.50;10247437;28;97287;-76
2022/11/26 18:27:35;;;;;;;24.00;15.43;;;;;;;11.43;100.00;101158.94;10227907;28;98746;-76
2022/11/26 18:32:40;;;;;;;20.40;13.70;;;;;;;11.35;100.00;101164.38;10228902;28;97099;-78
2022/11/26 18:37:43;;;;;;;21.52;13.70;;;;;;;11.29;100.00;101167.06;10231392;28;96878;-78
2022/11/26 18:42:52;;;;;;;18.98;13.32;;;;;;;11.17;100.00;101182.13;10225261;28;98455;-77
2022/11/26 18:47:56;;;;;;;26.58;16.92;;;;;;;11.07;100.00;101179.69;10221340;28;98482;-77
2022/11/26 18:52:59;;;;;;;23.77;16.40;;;;;;;10.82;100.00;101190.63;10221936;28;97137;-76
2022/11/26 18:58:02;;;;;;;21.58;14.23;;;;;;;10.77;100.00;101189.84;10230048;28;98666;-75
2022/11/26 19:03:12;;;;;;;22.83;14.82;;;;;;;10.76;100.00;101180.28;10202217;28;99144;-74
2022/11/26 19:08:16;;;;;;;25.95;16.52;;;;;;;10.67;100.00;101176.09;10207657;28;98333;-75
2022/11/26 19:13:19;;;;;;;30.20;19.63;;;;;;;10.66;100.00;101179.59;10190027;28;98346;-77
2022/11/26 19:18:23;;;;;;;26.55;16.95;;;;;;;10.61;100.00;101171.81;10182854;28;100290;-75
2022/11/26 19:23:27;;;;;;;24.05;16.35;;;;;;;10.60;100.00;101170.09;10207425;28;98823;-75
2022/11/26 19:28:30;;;;;;;22.23;15.75;;;;;;;10.61;100.00;101170.94;10219134;28;98436;-76
2022/11/26 19:33:35;;;;;;;23.15;14.55;;;;;;;10.63;100.00;101174.41;10196974;28;99055;-75
2022/11/26 19:38:38;;;;;;;20.83;12.75;;;;;;;10.65;100.00;101177.00;10190783;28;97656;-75
2022/11/26 19:43:42;;;;;;;19.30;12.07;;;;;;;10.65;100.00;101177.00;10193368;28;98798;-78
2022/11/26 19:48:49;;;;;;;17.13;11.02;;;;;;;10.62;100.00;101177.91;10201953;28;97293;-75
2022/11/26 19:53:54;;;;;;;19.13;11.55;;;;;;;10.61;100.00;101170.94;10194594;28;99018;-76
2022/11/26 19:58:59;;;;;;;;;;;;;;;10.55;100.00;101171.94;10192924;28;99523;-75
2022/11/26 20:04:05;;;;;;;19.27;11.23;;;;;;;10.55;100.00;101177.16;10197489;28;98743;-76
2022/11/26 20:09:09;;;;;;;15.68;9.93;;;;;;;10.55;100.00;101176.31;10192947;28;98326;-77
2022/11/26 20:14:14;;;;;;;14.27;9.13;;;;;;;10.46;100.00;101177.31;10195118;28;98998;-76
2022/11/26 20:19:18;;;;;;;12.10;8.27;;;;;;;10.46;100.00;101172.09;10204402;28;98222;-75
2022/11/26 20:24:22;;;;;;;13.15;8.90;;;;;;;10.47;100.00;101184.25;10205428;28;99347;-75
2022/11/26 20:29:25;;;;;;;12.63;9.10;;;;;;;10.48;100.00;101179.88;10182521;28;99366;-75
2022/11/26 20:34:35;;;;;;;14.52;8.65;;;;;;;10.47;100.00;101173.81;10188031;28;97426;-79
2022/11/26 20:39:38;;;;;;;13.48;9.05;;;;;;;10.32;100.00;101174.94;10187438;28;99195;-83
2022/11/26 20:44:42;;;;;;;13.25;8.27;;;;;;;10.34;100.00;101162.69;10198199;28;96997;-79
2022/11/26 20:49:46;;;;;;;17.17;10.27;;;;;;;10.17;100.00;101160.34;10206419;28;96995;-81
2022/11/26 20:54:50;;;;;;;15.27;9.68;;;;;;;10.08;100.00;101170.94;10215685;28;96896;-79
2022/11/26 20:59:56;;;;;;;13.77;8.65;;;;;;;10.01;100.00;101169.31;10203375;28;98470;-80
2022/11/26 21:05:01;;;;;;;15.65;8.98;;;;;;;10.09;100.00;101183.13;10220290;28;99004;-80
2022/11/26 21:10:04;;;;;;;;;;;;;;;10.10;100.00;101171.78;10205911;28;97815;-80
2022/11/26 21:15:08;;;;;;;14.43;8.30;;;;;;;10.10;100.00;101182.25;10201378;28;96975;-77
2022/11/26 21:20:14;;;;;;;14.33;9.00;;;;;;;10.08;100.00;101196.19;10207887;28;99002;-79
2022/11/26 21:25:17;;;;;;;16.08;9.40;;;;;;;10.06;100.00;101188.38;10218357;28;97415;-82
2022/11/26 21:30:20;;;;;;;14.40;9.43;;;;;;;9.99;100.00;101181.53;10195407;28;100260;-81
2022/11/26 21:35:25;;;;;;;16.38;9.48;;;;;;;9.86;100.00;101178.25;10212597;28;97586;-85
2022/11/26 21:40:29;;;;;;;14.27;10.15;;;;;;;9.77;100.00;101175.75;10209408;28;97535;-80
2022/11/26 21:45:32;;;;;;;14.40;9.55;;;;;;;9.78;100.00;101175.72;10192401;28;96958;-82
2022/11/26 21:50:36;;;;;;;16.90;9.93;;;;;;;9.87;100.00;101172.13;10200979;28;96831;-82
2022/11/26 21:55:40;;;;;;;13.82;9.60;;;;;;;9.92;100.00;101169.44;10201255;28;98458;-82
2022/11/26 22:00:43;;;;;;;16.67;10.05;;;;;;;9.85;100.00;101177.38;10197564;28;98879;-83
2022/11/26 22:06:00;;;;;;;17.23;10.15;;;;;;;9.79;100.00;101180.06;10188245;28;97633;-82
2022/11/26 22:11:31;;;;;;;14.32;9.52;;;;;;;9.84;100.00;101170.41;10190632;28;97314;-85
2022/11/26 22:16:41;;;;;;;15.25;10.50;;;;;;;9.88;100.00;101165.16;10196419;28;98266;-85
2022/11/26 22:21:49;;;;;;;17.02;9.85;;;;;;;9.89;100.00;101174.69;10194941;28;98780;-83
2022/11/26 22:26:53;;;;;;;15.27;10.13;;;;;;;9.83;100.00;101167.81;10207650;28;97783;-81
2022/11/26 22:32:09;;;;;;;15.20;9.90;;;;;;;9.67;100.00;101165.41;10202272;28;97363;-85
2022/11/26 22:37:15;;;;;;;17.15;10.68;;;;;;;9.55;100.00;101156.91;10204995;28;96825;-85
2022/11/26 22:42:18;;;;;;;19.38;10.70;;;;;;;9.48;100.00;101153.50;10220891;28;98649;-84
2022/11/26 22:47:21;;;;;;;16.00;9.98;;;;;;;9.47;100.00;101163.09;10213998;28;96689;-83
2022/11/26 22:52:26;;;;;;;16.92;10.13;;;;;;;9.39;100.00;101166.66;10209150;28;97895;-87
2022/11/26 22:57:29;;;;;;;16.70;10.52;;;;;;;9.38;100.00;101164.91;10225991;28;96839;-87
2022/11/26 23:02:33;;;;;;;13.05;9.50;;;;;;;9.38;100.00;101157.94;10221988;28;97284;-87
2022/11/26 23:07:38;;;;;;;16.40;10.10;;;;;;;9.37;100.00;101165.81;10217024;28;96822;-86
2022/11/26 23:12:41;;;;;;;13.65;9.60;;;;;;;9.30;100.00;101158.03;10215684;28;96800;-85
2022/11/26 23:17:44;;;;;;;14.93;10.18;;;;;;;9.23;100.00;101163.38;10205774;28;96990;-85
2022/11/26 23:22:49;;;;;;;13.13;9.63;;;;;;;9.25;100.00;101156.38;10230258;28;97263;-86
2022/11/26 23:27:52;;;;;;;16.75;10.32;;;;;;;9.23;100.00;101145.09;10192784;28;97905;-87
2022/11/26 23:32:55;;;;;;;18.45;10.45;;;;;;;9.21;100.00;101145.13;10229528;28;97261;-87
2022/11/26 23:38:00;;;;;;;13.88;9.68;;;;;;;9.14;100.00;101139.97;10216108;28;98833;-87
2022/11/26 23:43:03;;;;;;;15.98;9.90;;;;;;;9.13;100.00;101143.47;10206970;28;97033;-83
2022/11/26 23:48:10;;;;;;;16.15;10.57;;;;;;;9.06;100.00;101142.69;10222752;28;96792;-83
2022/11/26 23:53:15;;;;;;;15.85;10.35;;;;;;;9.04;100.00;101137.47;10236801;28;96583;-86
2022/11/26 23:58:19;;;;;;;13.15;9.60;;;;;;;9.03;100.00;101130.53;10223789;28;98354;-84
